Time;durP1;ratioP1;P1;durP2;ratioP2;P2;SDS_P1;SDS_P2;PMS_P1;PMS_P2;Temp;Humidity;BMP_temperature;BMP_pressure;BME280_temperature;BME280_humidity;BME280_pressure;Samples;Min_cycle;Max_cycle;Signal;HPM_P1;HPM_P2
2023/11/18 00:06:57;;;;;;;0.00;0.00;;;1.90;93.50;;;;;;25476582;23;20380;-48
2023/11/18 00:16:59;;;;;;;0.03;0.00;;;1.90;94.00;;;;;;25476349;23;20009;-59
2023/11/18 00:27:07;;;;;;;0.00;0.00;;;1.80;94.10;;;;;;25476214;23;20006;-60
2023/11/18 00:37:09;;;;;;;0.00;0.00;;;1.70;94.70;;;;;;25449306;23;20010;-59
2023/11/18 00:47:12;;;;;;;0.00;0.00;;;1.20;95.80;;;;;;25473419;23;20468;-59
2023/11/18 00:57:14;;;;;;;0.00;0.00;;;1.00;96.10;;;;;;25474811;23;20097;-59
2023/11/18 01:07:16;;;;;;;0.00;0.00;;;1.50;95.40;;;;;;25474493;23;20016;-60
2023/11/18 01:17:18;;;;;;;0.20;0.00;;;1.70;95.00;;;;;;25472649;23;20005;-59
2023/11/18 01:27:20;;;;;;;0.15;0.00;;;1.60;94.90;;;;;;25473648;23;20009;-60
2023/11/18 01:37:23;;;;;;;0.00;0.00;;;1.60;95.30;;;;;;25472948;23;20426;-59
2023/11/18 01:47:26;;;;;;;0.00;0.00;;;1.50;95.80;;;;;;25472753;23;20013;-59
2023/11/18 01:57:29;;;;;;;0.00;0.00;;;1.60;95.30;;;;;;25472723;23;20105;-60
2023/11/18 02:07:31;;;;;;;0.00;0.00;;;1.60;94.80;;;;;;25470147;23;20005;-56
2023/11/18 02:17:34;;;;;;;0.00;0.00;;;1.80;94.70;;;;;;25470561;23;20006;-60
2023/11/18 02:27:36;;;;;;;0.00;0.00;;;1.80;94.60;;;;;;25445551;23;20037;-58
2023/11/18 02:37:43;;;;;;;0.00;0.00;;;1.80;94.30;;;;;;25446035;23;20076;-59
2023/11/18 02:47:45;;;;;;;0.57;0.00;;;1.90;93.90;;;;;;25511836;23;20013;-58
2023/11/18 02:57:47;;;;;;;0.00;0.00;;;1.90;93.70;;;;;;25469665;23;20002;-60
2023/11/18 03:07:54;;;;;;;0.00;0.00;;;1.80;94.00;;;;;;25469399;23;20273;-59
2023/11/18 03:17:56;;;;;;;0.00;0.00;;;1.90;94.10;;;;;;25515219;23;20005;-59
2023/11/18 03:27:59;;;;;;;0.13;0.00;;;1.90;93.90;;;;;;25478220;23;20009;-60
2023/11/18 03:38:00;;;;;;;0.10;0.00;;;2.10;93.80;;;;;;25477432;23;20068;-59
2023/11/18 03:48:03;;;;;;;0.10;0.00;;;2.00;93.60;;;;;;25476317;23;20445;-60
2023/11/18 03:58:07;;;;;;;0.00;0.00;;;2.10;93.20;;;;;;25477281;23;20076;-59
2023/11/18 04:08:11;;;;;;;0.00;0.00;;;2.10;93.00;;;;;;25476784;23;20006;-59
2023/11/18 04:18:14;;;;;;;0.00;0.00;;;2.20;92.70;;;;;;25449926;23;20009;-59
2023/11/18 04:28:16;;;;;;;0.35;0.00;;;2.20;92.70;;;;;;25474243;23;20333;-60
2023/11/18 04:38:19;;;;;;;0.20;0.00;;;2.00;93.00;;;;;;25475401;23;20010;-60
2023/11/18 04:48:22;;;;;;;0.00;0.00;;;2.00;92.60;;;;;;25474969;23;20307;-60
2023/11/18 04:58:23;;;;;;;0.00;0.00;;;2.20;92.40;;;;;;25474847;23;20001;-59
2023/11/18 05:08:25;;;;;;;0.00;0.00;;;2.10;92.60;;;;;;25474487;23;20496;-60
2023/11/18 05:18:33;;;;;;;0.00;0.00;;;2.00;92.20;;;;;;25474231;23;20002;-60
2023/11/18 05:28:38;;;;;;;0.00;0.00;;;2.20;92.20;;;;;;25514344;23;20062;-58
2023/11/18 05:38:42;;;;;;;0.00;0.00;;;2.20;91.90;;;;;;25473923;23;20013;-59
2023/11/18 05:48:44;;;;;;;0.00;0.00;;;2.20;91.60;;;;;;25472798;23;20006;-60
2023/11/18 05:58:46;;;;;;;0.95;0.10;;;2.10;91.10;;;;;;25472776;23;20064;-60
2023/11/18 06:08:49;;;;;;;0.00;0.00;;;2.30;90.80;;;;;;25472175;23;20010;-59
2023/11/18 06:18:56;;;;;;;0.03;0.00;;;2.40;90.70;;;;;;25471700;23;20002;-59
2023/11/18 06:28:59;;;;;;;0.00;0.00;;;2.30;90.80;;;;;;25512476;23;20009;-60
2023/11/18 06:39:01;;;;;;;0.00;0.00;;;2.20;90.80;;;;;;25471103;23;20009;-46
2023/11/18 06:49:06;;;;;;;0.00;0.00;;;2.30;91.10;;;;;;25471468;23;20075;-60
2023/11/18 06:59:10;;;;;;;0.00;0.00;;;2.30;90.60;;;;;;25481106;23;20056;-60
2023/11/18 07:09:21;;;;;;;0.85;0.00;;;2.50;90.50;;;;;;25477226;23;20009;-50
2023/11/18 07:19:23;;;;;;;0.10;0.00;;;2.60;90.40;;;;;;25517853;23;20001;-59
2023/11/18 07:29:26;;;;;;;0.00;0.00;;;2.90;90.00;;;;;;25478571;23;20005;-46
2023/11/18 07:39:43;;;;;;;0.10;0.00;;;3.60;88.60;;;;;;25476018;23;20529;-49
2023/11/18 07:49:48;;;;;;;0.17;0.10;;;4.20;86.80;;;;;;25518355;23;20010;-55
2023/11/18 07:59:53;;;;;;;0.52;0.10;;;4.80;84.90;;;;;;25476979;23;20005;-48
2023/11/18 08:09:58;;;;;;;0.00;0.00;;;5.00;84.10;;;;;;25476609;23;20009;-50
2023/11/18 08:19:59;;;;;;;0.10;0.00;;;5.30;81.70;;;;;;25476178;23;20005;-56
2023/11/18 08:30:11;;;;;;;0.00;0.00;;;5.80;80.80;;;;;;25475429;23;20002;-58
2023/11/18 08:40:20;;;;;;;0.40;0.00;;;6.30;79.60;;;;;;25474332;23;20014;-59
2023/11/18 08:50:25;;;;;;;0.00;0.00;;;6.10;79.60;;;;;;25516221;23;20060;-50
2023/11/18 09:10:45;;;;;;;0.00;0.00;;;5.80;81.40;;;;;;25515264;23;20056;-57
2023/11/18 09:20:47;;;;;;;0.17;0.00;;;6.40;80.00;;;;;;25473659;23;20002;-57
2023/11/18 09:30:50;;;;;;;0.00;0.00;;;6.60;79.40;;;;;;25473767;23;20457;-58
2023/11/18 09:40:53;;;;;;;0.05;0.00;;;6.90;78.00;;;;;;25472943;23;20013;-49
2023/11/18 09:50:59;;;;;;;0.40;0.00;;;7.20;78.70;;;;;;25471988;23;20018;-55
2023/11/18 10:01:03;;;;;;;0.00;0.00;;;7.60;79.40;;;;;;25512850;23;20013;-47
2023/11/18 10:11:13;;;;;;;1.95;0.00;;;7.80;79.80;;;;;;25471875;23;20037;-53
2023/11/18 10:21:18;;;;;;;0.08;0.00;;;8.00;79.40;;;;;;25513294;23;20009;-55
2023/11/18 10:31:20;;;;;;;0.10;0.00;;;8.50;77.40;;;;;;25470688;23;20009;-50
2023/11/18 10:41:25;;;;;;;0.00;0.00;;;8.60;77.30;;;;;;25470617;23;20006;-53
2023/11/18 10:51:30;;;;;;;1.30;0.10;;;8.40;77.20;;;;;;25470874;23;20110;-57
2023/11/18 11:01:38;;;;;;;0.15;0.00;;;9.20;77.60;;;;;;25470659;23;20005;-51
2023/11/18 11:11:55;;;;;;;0.10;0.00;;;8.80;75.90;;;;;;25511384;23;20056;-46
2023/11/18 11:22:15;;;;;;;0.10;0.00;;;9.00;81.40;;;;;;25469046;23;20036;-47
2023/11/18 11:32:30;;;;;;;0.13;0.00;;;9.40;77.30;;;;;;25510364;23;20013;-52
2023/11/18 11:42:32;;;;;;;0.10;0.00;;;9.10;75.10;;;;;;25491407;23;20006;-46
2023/11/18 11:52:42;;;;;;;0.22;0.10;;;9.00;77.10;;;;;;25477501;23;20005;-52
2023/11/18 12:02:56;;;;;;;0.22;0.05;;;9.50;76.80;;;;;;25476317;23;20069;-57
2023/11/18 12:13:15;;;;;;;0.30;0.10;;;10.10;79.20;;;;;;25517529;23;20001;-57
2023/11/18 12:23:18;;;;;;;0.10;0.00;;;10.70;78.00;;;;;;25515255;23;20056;-59
2023/11/18 12:33:22;;;;;;;0.20;0.00;;;10.60;76.70;;;;;;25475872;23;20052;-49
2023/11/18 12:43:52;;;;;;;0.10;0.00;;;10.40;74.80;;;;;;25474912;23;20013;-50
2023/11/18 12:53:54;;;;;;;0.10;0.00;;;10.40;76.70;;;;;;25513388;23;20005;-58
2023/11/18 13:03:56;;;;;;;0.30;0.00;;;9.90;77.50;;;;;;25474693;23;20006;-51
2023/11/18 13:13:58;;;;;;;0.60;0.10;;;9.60;79.30;;;;;;25473968;23;20002;-53
2023/11/18 13:24:00;;;;;;;0.10;0.05;;;9.20;78.50;;;;;;25473977;23;20012;-48
2023/11/18 13:34:03;;;;;;;0.20;0.00;;;8.70;82.20;;;;;;25473489;23;20001;-52
2023/11/18 13:44:09;;;;;;;0.80;0.10;;;8.30;80.30;;;;;;25472362;23;20017;-46
2023/11/18 13:54:11;;;;;;;0.28;0.10;;;7.80;81.90;;;;;;25471792;23;20010;-49
2023/11/18 14:04:14;;;;;;;0.30;0.10;;;7.40;84.30;;;;;;25471686;23;20056;-57
2023/11/18 14:14:17;;;;;;;0.03;0.00;;;7.10;84.00;;;;;;25471839;23;20005;-49
2023/11/18 14:24:19;;;;;;;0.13;0.10;;;6.70;82.10;;;;;;25471627;23;20009;-58
2023/11/18 14:34:21;;;;;;;1.33;0.10;;;6.30;82.90;;;;;;25471396;23;20005;-49
2023/11/18 14:44:23;;;;;;;0.15;0.08;;;6.00;83.70;;;;;;25470527;23;20009;-53
2023/11/18 14:54:26;;;;;;;0.32;0.10;;;5.70;85.00;;;;;;25470721;23;20009;-59
2023/11/18 15:04:31;;;;;;;0.20;0.00;;;5.30;89.10;;;;;;25470622;23;20307;-57
2023/11/18 15:14:32;;;;;;;0.20;0.10;;;4.50;91.30;;;;;;25474766;23;20052;-51
2023/11/18 15:24:35;;;;;;;0.45;0.10;;;3.70;92.20;;;;;;25478387;23;20017;-52
2023/11/18 15:34:37;;;;;;;1.75;0.30;;;3.20;92.90;;;;;;25477941;23;20499;-47
2023/11/18 15:44:40;;;;;;;1.48;0.47;;;2.90;93.70;;;;;;25477212;23;20063;-59
2023/11/18 15:54:43;;;;;;;0.30;0.10;;;2.70;93.30;;;;;;25477347;23;20052;-59
2023/11/18 16:04:46;;;;;;;0.20;0.10;;;2.60;92.50;;;;;;25476979;23;20010;-59
2023/11/18 16:14:47;;;;;;;0.10;0.00;;;2.50;92.70;;;;;;25476474;23;20005;-59
2023/11/18 16:24:49;;;;;;;0.35;0.10;;;2.40;91.90;;;;;;25474108;23;20005;-59
2023/11/18 16:34:51;;;;;;;0.93;0.25;;;2.20;92.60;;;;;;25475971;23;20024;-58
2023/11/18 16:44:53;;;;;;;0.60;0.30;;;2.30;93.40;;;;;;25475314;23;20036;-58
2023/11/18 16:54:55;;;;;;;0.13;0.00;;;2.30;92.40;;;;;;25475263;23;20006;-52
2023/11/18 17:04:57;;;;;;;0.52;0.20;;;2.30;92.20;;;;;;25473129;23;20017;-58
2023/11/18 17:14:59;;;;;;;1.70;0.20;;;2.20;92.50;;;;;;25474243;23;20010;-53
2023/11/18 17:25:03;;;;;;;0.30;0.10;;;2.00;92.30;;;;;;25472844;23;20028;-59
2023/11/18 17:35:06;;;;;;;0.10;0.00;;;2.20;89.50;;;;;;25473175;23;20016;-58
2023/11/18 17:45:11;;;;;;;0.10;0.00;;;2.40;91.00;;;;;;25472826;23;20037;-47
2023/11/18 17:55:16;;;;;;;0.00;0.00;;;2.10;91.40;;;;;;25472379;23;20006;-50
2023/11/18 18:05:19;;;;;;;0.20;0.00;;;1.80;91.80;;;;;;25471714;23;20009;-49
2023/11/18 18:15:26;;;;;;;1.38;0.10;;;1.70;92.20;;;;;;25471957;23;20329;-51
2023/11/18 18:25:28;;;;;;;0.22;0.00;;;1.80;91.70;;;;;;25510993;23;20013;-48
2023/11/18 18:35:33;;;;;;;0.25;0.00;;;1.80;92.20;;;;;;25471337;23;20006;-48
2023/11/18 18:45:35;;;;;;;0.13;0.05;;;1.70;92.20;;;;;;25470511;23;20014;-48
2023/11/18 18:55:37;;;;;;;0.10;0.00;;;1.70;92.30;;;;;;25470874;23;20025;-58
2023/11/18 19:05:39;;;;;;;0.08;0.03;;;1.60;92.70;;;;;;25472682;23;20009;-58
2023/11/18 19:15:41;;;;;;;0.25;0.00;;;1.70;92.70;;;;;;25470581;23;20385;-57
2023/11/18 19:25:43;;;;;;;0.17;0.00;;;1.70;92.20;;;;;;25470081;23;20016;-59
2023/11/18 19:35:49;;;;;;;0.10;0.00;;;1.80;92.50;;;;;;25470406;23;20043;-59
2023/11/18 19:45:52;;;;;;;0.65;0.00;;;1.70;91.40;;;;;;25473241;23;20330;-59
2023/11/18 19:55:54;;;;;;;1.33;0.00;;;1.80;92.10;;;;;;25470218;23;20013;-59
2023/11/18 20:05:57;;;;;;;0.47;0.10;;;1.70;92.40;;;;;;25476144;23;20017;-58
2023/11/18 20:15:59;;;;;;;0.08;0.00;;;1.70;91.60;;;;;;25474422;23;20393;-59
2023/11/18 20:26:01;;;;;;;0.00;0.00;;;1.50;92.20;;;;;;25474334;23;20009;-59
2023/11/18 20:36:04;;;;;;;0.77;0.10;;;1.30;92.20;;;;;;25475959;23;20002;-59
2023/11/18 20:46:06;;;;;;;0.13;0.00;;;2.00;92.00;;;;;;25474480;23;20010;-59
2023/11/18 20:56:08;;;;;;;0.10;0.10;;;2.00;91.30;;;;;;25474632;23;20005;-59
2023/11/18 21:06:10;;;;;;;0.10;0.00;;;1.90;91.60;;;;;;25474651;23;20002;-59
2023/11/18 21:16:12;;;;;;;1.00;0.20;;;1.60;91.90;;;;;;25473892;23;20013;-51
2023/11/18 21:26:14;;;;;;;0.30;0.10;;;1.60;92.40;;;;;;25473866;23;20433;-59
2023/11/18 21:36:16;;;;;;;0.30;0.10;;;1.40;93.70;;;;;;25472481;23;20010;-59
2023/11/18 21:46:18;;;;;;;0.38;0.13;;;1.30;94.10;;;;;;25472353;23;20009;-59
2023/11/18 21:56:21;;;;;;;0.40;0.20;;;1.30;93.40;;;;;;25472321;23;20009;-59
2023/11/18 22:06:24;;;;;;;0.40;0.10;;;1.50;93.50;;;;;;25471801;23;20010;-56
2023/11/18 22:16:27;;;;;;;0.35;0.10;;;1.60;93.50;;;;;;25472131;23;20002;-61
2023/11/18 22:26:29;;;;;;;0.30;0.10;;;1.50;93.10;;;;;;25471984;23;20068;-59
2023/11/18 22:36:32;;;;;;;0.50;0.10;;;1.40;93.10;;;;;;25472785;23;20006;-59
2023/11/18 22:46:35;;;;;;;0.98;0.13;;;1.20;94.00;;;;;;25470998;23;20010;-58
2023/11/18 22:56:37;;;;;;;0.40;0.20;;;1.10;94.20;;;;;;25471073;23;20146;-59
2023/11/18 23:06:40;;;;;;;0.20;0.10;;;1.20;93.80;;;;;;25471804;23;20013;-59
2023/11/18 23:16:43;;;;;;;0.57;0.10;;;1.20;93.70;;;;;;25470099;23;20009;-59
2023/11/18 23:26:45;;;;;;;0.40;0.15;;;1.20;93.30;;;;;;25469981;23;20010;-59
2023/11/18 23:36:52;;;;;;;0.40;0.20;;;1.00;94.60;;;;;;25475086;23;20326;-49
2023/11/18 23:46:55;;;;;;;0.28;0.20;;;0.90;94.60;;;;;;25477518;23;20071;-48
2023/11/18 23:56:58;;;;;;;0.50;0.40;;;1.10;94.40;;;;;;25475964;23;20010;-56
